Portada
METAR-TAF:

METAR-TAF

Aeropuertos :

Bergerac, Francia

latitud: 44-49N, longitud: 000-31E, altitud: 51 m

Observación

El informe se hizo hace 31 minutos, a las 05:30 UTC
Viento 5 kt del noroeste, variando entre oeste-noroeste y norte
Temperatura 11°C
Humedad 87%
Presión 1028 hPa
Visibilidad 10 km o más
sin nubes por debajo de 1500 m y sin presencia de cumulonimbus.

METAR: LFBE 240530Z AUTO 32005KT 290V010 CAVOK 11/09 Q1028 TEMPO BKN013 BECMG 03015KT

Hora: 08:01 (06:01 UTC)

Pronóstico

El informe se hizo hace 1 hora y 1 minutos, a las 05:00 UTC
Pronóstico válido del 24 a las 06 UTC al 25 a las 06 UTC
Viento 15 kt del norte-noreste
Visibilidad 10 km o más
sin nubes por debajo de 1500 m y sin presencia de cumulonimbus.
Probabilidad 30% :
Temporalmente
del 24 a las 06 UTC al 24 a las 07 UTC
Cielo nuboso a una altura de 1300 ft

TAF: LFBE 240500Z 2406/2506 03015KT CAVOK PROB30 TEMPO 2406/2407 BKN013

Observaciones y pronósticos meteorológicos de más de 4000 aeropuertos (mensajes METAR y TAF).

Los puntos amarillos y rojos representan las estaciones disponibles.

Ponga el ratón en el punto deseado para ver el nombre de la estación.

Haga clic para ver las observaciones y los pronósticos meteorológicos.

Para cambiar el mapa : haga clic en los botones verdes con una cruz de color negro para hacer un zoom, en el botón verde con un guión para alejar o en las flechas verdes para mapas adyacentes.


METAR-TAF: